sensor_id;sensor_type;location;lat;lon;timestamp;P1;durP1;ratioP1;P2;durP2;ratioP2
26106;SDS011;13866;50.748;12.630;2022-10-23T00:01:26;2.20;;;2.10;;
26106;SDS011;13866;50.748;12.630;2022-10-23T00:03:57;2.17;;;2.07;;
26106;SDS011;13866;50.748;12.630;2022-10-23T00:06:25;8.97;;;2.43;;
26106;SDS011;13866;50.748;12.630;2022-10-23T00:08:51;5.30;;;1.90;;
26106;SDS011;13866;50.748;12.630;2022-10-23T00:11:18;5.07;;;2.63;;
26106;SDS011;13866;50.748;12.630;2022-10-23T00:13:46;1.70;;;1.70;;
26106;SDS011;13866;50.748;12.630;2022-10-23T00:16:12;6.00;;;2.10;;
26106;SDS011;13866;50.748;12.630;2022-10-23T00:18:38;6.90;;;1.70;;
26106;SDS011;13866;50.748;12.630;2022-10-23T00:21:04;3.50;;;1.80;;
26106;SDS011;13866;50.748;12.630;2022-10-23T00:23:31;4.37;;;1.63;;
26106;SDS011;13866;50.748;12.630;2022-10-23T00:25:56;1.83;;;1.70;;
26106;SDS011;13866;50.748;12.630;2022-10-23T00:28:22;13.93;;;2.40;;
26106;SDS011;13866;50.748;12.630;2022-10-23T00:30:47;5.60;;;1.93;;
26106;SDS011;13866;50.748;12.630;2022-10-23T00:33:13;4.90;;;2.27;;
26106;SDS011;13866;50.748;12.630;2022-10-23T00:35:39;9.73;;;2.43;;
26106;SDS011;13866;50.748;12.630;2022-10-23T00:38:06;7.00;;;2.23;;
26106;SDS011;13866;50.748;12.630;2022-10-23T00:40:32;7.70;;;2.50;;
26106;SDS011;13866;50.748;12.630;2022-10-23T00:42:58;4.30;;;2.23;;
26106;SDS011;13866;50.748;12.630;2022-10-23T00:45:24;2.43;;;1.60;;
26106;SDS011;13866;50.748;12.630;2022-10-23T00:47:52;7.53;;;1.90;;
26106;SDS011;13866;50.748;12.630;2022-10-23T00:50:19;1.70;;;1.60;;
26106;SDS011;13866;50.748;12.630;2022-10-23T00:52:47;2.87;;;2.63;;
26106;SDS011;13866;50.748;12.630;2022-10-23T00:55:15;3.27;;;1.63;;
26106;SDS011;13866;50.748;12.630;2022-10-23T00:57:42;2.40;;;1.53;;
26106;SDS011;13866;50.748;12.630;2022-10-23T01:00:11;3.50;;;1.93;;
26106;SDS011;13866;50.748;12.630;2022-10-23T01:02:39;1.80;;;1.70;;
26106;SDS011;13866;50.748;12.630;2022-10-23T01:05:05;13.63;;;2.00;;
26106;SDS011;13866;50.748;12.630;2022-10-23T01:07:35;2.83;;;1.90;;
26106;SDS011;13866;50.748;12.630;2022-10-23T01:10:21;8.80;;;1.87;;
26106;SDS011;13866;50.748;12.630;2022-10-23T01:13:23;5.13;;;2.10;;
26106;SDS011;13866;50.748;12.630;2022-10-23T01:18:50;3.43;;;2.37;;
26106;SDS011;13866;50.748;12.630;2022-10-23T01:21:27;2.20;;;2.00;;
26106;SDS011;13866;50.748;12.630;2022-10-23T01:30:06;2.40;;;2.27;;
26106;SDS011;13866;50.748;12.630;2022-10-23T01:32:53;4.30;;;1.63;;
26106;SDS011;13866;50.748;12.630;2022-10-23T01:35:31;4.93;;;2.60;;
26106;SDS011;13866;50.748;12.630;2022-10-23T01:38:05;6.30;;;2.20;;
26106;SDS011;13866;50.748;12.630;2022-10-23T01:40:36;3.20;;;1.87;;
26106;SDS011;13866;50.748;12.630;2022-10-23T01:43:14;13.87;;;2.13;;
26106;SDS011;13866;50.748;12.630;2022-10-23T01:45:48;7.20;;;2.20;;
26106;SDS011;13866;50.748;12.630;2022-10-23T01:48:25;5.03;;;1.93;;
26106;SDS011;13866;50.748;12.630;2022-10-23T01:50:53;4.70;;;2.27;;
26106;SDS011;13866;50.748;12.630;2022-10-23T01:53:22;2.80;;;2.40;;
26106;SDS011;13866;50.748;12.630;2022-10-23T01:55:50;2.37;;;2.17;;
26106;SDS011;13866;50.748;12.630;2022-10-23T01:58:16;7.70;;;2.00;;
26106;SDS011;13866;50.748;12.630;2022-10-23T02:00:45;4.47;;;1.83;;
26106;SDS011;13866;50.748;12.630;2022-10-23T02:03:12;8.30;;;2.00;;
26106;SDS011;13866;50.748;12.630;2022-10-23T02:05:39;6.43;;;3.00;;
26106;SDS011;13866;50.748;12.630;2022-10-23T02:08:05;10.33;;;2.40;;
26106;SDS011;13866;50.748;12.630;2022-10-23T02:10:33;4.30;;;1.90;;
26106;SDS011;13866;50.748;12.630;2022-10-23T02:14:07;5.17;;;2.00;;
26106;SDS011;13866;50.748;12.630;2022-10-23T02:16:14;1.73;;;1.73;;
26106;SDS011;13866;50.748;12.630;2022-10-23T02:21:46;9.10;;;2.47;;
26106;SDS011;13866;50.748;12.630;2022-10-23T02:27:29;8.60;;;2.03;;
26106;SDS011;13866;50.748;12.630;2022-10-23T02:30:01;3.43;;;1.60;;
26106;SDS011;13866;50.748;12.630;2022-10-23T02:32:29;3.50;;;1.87;;
26106;SDS011;13866;50.748;12.630;2022-10-23T02:34:56;4.47;;;2.47;;
26106;SDS011;13866;50.748;12.630;2022-10-23T02:37:22;3.60;;;1.93;;
26106;SDS011;13866;50.748;12.630;2022-10-23T02:39:49;6.03;;;2.30;;
26106;SDS011;13866;50.748;12.630;2022-10-23T02:45:03;2.60;;;2.50;;
26106;SDS011;13866;50.748;12.630;2022-10-23T02:50:50;5.53;;;1.90;;
26106;SDS011;13866;50.748;12.630;2022-10-23T02:53:46;7.10;;;2.67;;
26106;SDS011;13866;50.748;12.630;2022-10-23T02:56:28;1.57;;;1.57;;
26106;SDS011;13866;50.748;12.630;2022-10-23T03:01:48;2.77;;;1.53;;
26106;SDS011;13866;50.748;12.630;2022-10-23T03:04:17;1.70;;;1.43;;
26106;SDS011;13866;50.748;12.630;2022-10-23T03:06:45;1.60;;;1.60;;
26106;SDS011;13866;50.748;12.630;2022-10-23T03:09:11;4.07;;;2.07;;
26106;SDS011;13866;50.748;12.630;2022-10-23T03:11:37;2.67;;;2.03;;
26106;SDS011;13866;50.748;12.630;2022-10-23T03:14:02;3.37;;;1.90;;
26106;SDS011;13866;50.748;12.630;2022-10-23T03:16:28;6.13;;;2.20;;
26106;SDS011;13866;50.748;12.630;2022-10-23T03:18:53;3.50;;;2.00;;
26106;SDS011;13866;50.748;12.630;2022-10-23T03:21:19;1.83;;;1.50;;
26106;SDS011;13866;50.748;12.630;2022-10-23T03:23:45;3.63;;;2.30;;
26106;SDS011;13866;50.748;12.630;2022-10-23T03:26:11;4.67;;;3.50;;
26106;SDS011;13866;50.748;12.630;2022-10-23T03:28:36;1.80;;;1.70;;
26106;SDS011;13866;50.748;12.630;2022-10-23T03:31:02;1.43;;;1.43;;
26106;SDS011;13866;50.748;12.630;2022-10-23T03:33:28;1.50;;;1.50;;
26106;SDS011;13866;50.748;12.630;2022-10-23T03:35:54;8.47;;;1.30;;
26106;SDS011;13866;50.748;12.630;2022-10-23T03:38:19;2.73;;;2.03;;
26106;SDS011;13866;50.748;12.630;2022-10-23T03:40:45;1.70;;;1.60;;
26106;SDS011;13866;50.748;12.630;2022-10-23T03:43:10;21.77;;;2.03;;
26106;SDS011;13866;50.748;12.630;2022-10-23T03:45:36;1.97;;;1.90;;
26106;SDS011;13866;50.748;12.630;2022-10-23T03:48:02;2.50;;;2.10;;
26106;SDS011;13866;50.748;12.630;2022-10-23T03:50:29;1.80;;;1.80;;
26106;SDS011;13866;50.748;12.630;2022-10-23T03:52:54;4.60;;;2.00;;
26106;SDS011;13866;50.748;12.630;2022-10-23T03:55:20;17.90;;;2.33;;
26106;SDS011;13866;50.748;12.630;2022-10-23T03:57:45;11.53;;;2.27;;
26106;SDS011;13866;50.748;12.630;2022-10-23T04:00:11;1.90;;;1.83;;
26106;SDS011;13866;50.748;12.630;2022-10-23T04:02:37;4.93;;;1.90;;
26106;SDS011;13866;50.748;12.630;2022-10-23T04:05:02;3.47;;;1.60;;
26106;SDS011;13866;50.748;12.630;2022-10-23T04:07:28;4.80;;;1.83;;
26106;SDS011;13866;50.748;12.630;2022-10-23T04:09:54;6.30;;;2.00;;
26106;SDS011;13866;50.748;12.630;2022-10-23T04:12:19;2.60;;;2.43;;
26106;SDS011;13866;50.748;12.630;2022-10-23T04:14:45;16.80;;;3.73;;
26106;SDS011;13866;50.748;12.630;2022-10-23T04:17:10;1.87;;;1.87;;
26106;SDS011;13866;50.748;12.630;2022-10-23T04:19:36;5.80;;;2.00;;
26106;SDS011;13866;50.748;12.630;2022-10-23T04:22:01;3.40;;;1.90;;
26106;SDS011;13866;50.748;12.630;2022-10-23T04:24:27;1.93;;;1.87;;
26106;SDS011;13866;50.748;12.630;2022-10-23T04:26:53;3.20;;;2.33;;
26106;SDS011;13866;50.748;12.630;2022-10-23T04:29:18;4.93;;;1.90;;
26106;SDS011;13866;50.748;12.630;2022-10-23T04:31:47;3.03;;;1.97;;
26106;SDS011;13866;50.748;12.630;2022-10-23T04:34:12;2.37;;;1.97;;
26106;SDS011;13866;50.748;12.630;2022-10-23T04:36:38;2.30;;;1.80;;
26106;SDS011;13866;50.748;12.630;2022-10-23T04:39:04;14.07;;;2.00;;
26106;SDS011;13866;50.748;12.630;2022-10-23T04:41:29;3.73;;;1.57;;
26106;SDS011;13866;50.748;12.630;2022-10-23T04:43:55;2.10;;;1.87;;
26106;SDS011;13866;50.748;12.630;2022-10-23T04:46:20;3.63;;;2.60;;
26106;SDS011;13866;50.748;12.630;2022-10-23T04:48:46;8.27;;;2.17;;
26106;SDS011;13866;50.748;12.630;2022-10-23T04:51:11;10.83;;;2.30;;
26106;SDS011;13866;50.748;12.630;2022-10-23T04:53:37;1.97;;;1.97;;
26106;SDS011;13866;50.748;12.630;2022-10-23T04:56:03;2.17;;;2.07;;
26106;SDS011;13866;50.748;12.630;2022-10-23T04:58:29;10.03;;;2.10;;
26106;SDS011;13866;50.748;12.630;2022-10-23T05:00:55;7.83;;;2.10;;
26106;SDS011;13866;50.748;12.630;2022-10-23T05:03:21;1.67;;;1.67;;
26106;SDS011;13866;50.748;12.630;2022-10-23T05:05:47;9.30;;;1.90;;
26106;SDS011;13866;50.748;12.630;2022-10-23T05:08:13;6.13;;;2.00;;
26106;SDS011;13866;50.748;12.630;2022-10-23T05:10:39;4.97;;;2.53;;
26106;SDS011;13866;50.748;12.630;2022-10-23T05:13:05;3.43;;;2.00;;
26106;SDS011;13866;50.748;12.630;2022-10-23T05:15:31;2.60;;;2.10;;
26106;SDS011;13866;50.748;12.630;2022-10-23T05:17:58;3.63;;;1.90;;
26106;SDS011;13866;50.748;12.630;2022-10-23T05:20:30;3.90;;;1.90;;
26106;SDS011;13866;50.748;12.630;2022-10-23T05:22:58;6.20;;;2.93;;
26106;SDS011;13866;50.748;12.630;2022-10-23T05:25:26;2.30;;;1.97;;
26106;SDS011;13866;50.748;12.630;2022-10-23T05:27:54;7.87;;;2.30;;
26106;SDS011;13866;50.748;12.630;2022-10-23T05:30:19;9.63;;;1.93;;
26106;SDS011;13866;50.748;12.630;2022-10-23T05:32:45;5.90;;;2.33;;
26106;SDS011;13866;50.748;12.630;2022-10-23T05:35:13;1.77;;;1.77;;
26106;SDS011;13866;50.748;12.630;2022-10-23T05:37:41;7.10;;;2.47;;
26106;SDS011;13866;50.748;12.630;2022-10-23T05:40:09;5.00;;;1.80;;
26106;SDS011;13866;50.748;12.630;2022-10-23T05:42:35;5.20;;;2.07;;
26106;SDS011;13866;50.748;12.630;2022-10-23T05:45:01;3.27;;;3.07;;
26106;SDS011;13866;50.748;12.630;2022-10-23T05:47:26;3.13;;;2.70;;
26106;SDS011;13866;50.748;12.630;2022-10-23T05:49:52;3.10;;;2.90;;
26106;SDS011;13866;50.748;12.630;2022-10-23T05:52:17;3.10;;;3.00;;
26106;SDS011;13866;50.748;12.630;2022-10-23T05:54:44;5.30;;;3.30;;
26106;SDS011;13866;50.748;12.630;2022-10-23T05:57:09;12.87;;;3.47;;
26106;SDS011;13866;50.748;12.630;2022-10-23T05:59:35;3.60;;;3.50;;
26106;SDS011;13866;50.748;12.630;2022-10-23T06:02:00;8.83;;;4.40;;
26106;SDS011;13866;50.748;12.630;2022-10-23T06:04:26;3.93;;;3.33;;
26106;SDS011;13866;50.748;12.630;2022-10-23T06:06:52;3.93;;;3.63;;
26106;SDS011;13866;50.748;12.630;2022-10-23T06:09:17;4.50;;;4.10;;
26106;SDS011;13866;50.748;12.630;2022-10-23T06:11:43;4.77;;;4.33;;
26106;SDS011;13866;50.748;12.630;2022-10-23T06:14:08;4.80;;;4.40;;
26106;SDS011;13866;50.748;12.630;2022-10-23T06:16:34;3.70;;;3.50;;
26106;SDS011;13866;50.748;12.630;2022-10-23T06:19:00;9.90;;;4.83;;
26106;SDS011;13866;50.748;12.630;2022-10-23T06:21:25;4.80;;;4.40;;
26106;SDS011;13866;50.748;12.630;2022-10-23T06:23:51;7.77;;;4.53;;
26106;SDS011;13866;50.748;12.630;2022-10-23T06:26:17;9.60;;;4.90;;
26106;SDS011;13866;50.748;12.630;2022-10-23T06:28:43;4.37;;;4.17;;
26106;SDS011;13866;50.748;12.630;2022-10-23T06:31:09;4.60;;;4.23;;
26106;SDS011;13866;50.748;12.630;2022-10-23T06:33:37;7.43;;;5.40;;
26106;SDS011;13866;50.748;12.630;2022-10-23T06:36:03;9.40;;;5.83;;
26106;SDS011;13866;50.748;12.630;2022-10-23T06:38:29;5.87;;;5.50;;
26106;SDS011;13866;50.748;12.630;2022-10-23T06:41:00;6.77;;;6.00;;
26106;SDS011;13866;50.748;12.630;2022-10-23T06:43:26;8.90;;;8.13;;
26106;SDS011;13866;50.748;12.630;2022-10-23T06:45:52;12.60;;;7.30;;
26106;SDS011;13866;50.748;12.630;2022-10-23T06:48:18;13.10;;;8.60;;
26106;SDS011;13866;50.748;12.630;2022-10-23T06:50:43;10.03;;;7.20;;
26106;SDS011;13866;50.748;12.630;2022-10-23T06:53:09;24.80;;;8.40;;
26106;SDS011;13866;50.748;12.630;2022-10-23T06:55:36;6.90;;;6.43;;
26106;SDS011;13866;50.748;12.630;2022-10-23T06:58:06;5.50;;;5.27;;
26106;SDS011;13866;50.748;12.630;2022-10-23T07:00:35;11.83;;;6.20;;
26106;SDS011;13866;50.748;12.630;2022-10-23T07:03:03;6.77;;;6.20;;
26106;SDS011;13866;50.748;12.630;2022-10-23T07:05:29;8.30;;;5.30;;
26106;SDS011;13866;50.748;12.630;2022-10-23T07:07:56;6.43;;;6.10;;
26106;SDS011;13866;50.748;12.630;2022-10-23T07:10:21;7.73;;;6.50;;
26106;SDS011;13866;50.748;12.630;2022-10-23T07:12:47;6.73;;;6.13;;
26106;SDS011;13866;50.748;12.630;2022-10-23T07:15:13;6.40;;;5.73;;
26106;SDS011;13866;50.748;12.630;2022-10-23T07:17:39;14.73;;;6.13;;
26106;SDS011;13866;50.748;12.630;2022-10-23T07:20:05;4.80;;;4.40;;
26106;SDS011;13866;50.748;12.630;2022-10-23T07:22:31;7.90;;;4.70;;
26106;SDS011;13866;50.748;12.630;2022-10-23T07:24:57;5.17;;;4.50;;
26106;SDS011;13866;50.748;12.630;2022-10-23T07:27:23;5.47;;;4.13;;
26106;SDS011;13866;50.748;12.630;2022-10-23T07:29:49;4.50;;;4.00;;
26106;SDS011;13866;50.748;12.630;2022-10-23T07:32:15;3.37;;;3.17;;
26106;SDS011;13866;50.748;12.630;2022-10-23T07:34:40;2.70;;;2.70;;
26106;SDS011;13866;50.748;12.630;2022-10-23T07:37:06;2.37;;;2.27;;
26106;SDS011;13866;50.748;12.630;2022-10-23T07:39:32;3.00;;;2.90;;
26106;SDS011;13866;50.748;12.630;2022-10-23T07:41:57;4.90;;;2.10;;
26106;SDS011;13866;50.748;12.630;2022-10-23T07:44:23;4.87;;;2.20;;
26106;SDS011;13866;50.748;12.630;2022-10-23T07:46:48;2.40;;;2.30;;
26106;SDS011;13866;50.748;12.630;2022-10-23T07:49:14;2.03;;;1.80;;
26106;SDS011;13866;50.748;12.630;2022-10-23T07:51:39;2.97;;;1.40;;
26106;SDS011;13866;50.748;12.630;2022-10-23T07:54:06;19.73;;;2.77;;
26106;SDS011;13866;50.748;12.630;2022-10-23T07:56:33;3.87;;;1.73;;
26106;SDS011;13866;50.748;12.630;2022-10-23T07:58:58;2.40;;;2.30;;
26106;SDS011;13866;50.748;12.630;2022-10-23T08:01:26;3.20;;;1.97;;
26106;SDS011;13866;50.748;12.630;2022-10-23T08:04:01;3.50;;;1.80;;
26106;SDS011;13866;50.748;12.630;2022-10-23T08:06:26;19.37;;;2.20;;
26106;SDS011;13866;50.748;12.630;2022-10-23T08:08:53;2.30;;;1.83;;
26106;SDS011;13866;50.748;12.630;2022-10-23T08:11:19;3.40;;;3.10;;
26106;SDS011;13866;50.748;12.630;2022-10-23T08:13:53;2.93;;;2.83;;
26106;SDS011;13866;50.748;12.630;2022-10-23T08:16:21;15.60;;;2.90;;
26106;SDS011;13866;50.748;12.630;2022-10-23T08:18:47;6.47;;;2.83;;
26106;SDS011;13866;50.748;12.630;2022-10-23T08:21:13;4.20;;;2.40;;
26106;SDS011;13866;50.748;12.630;2022-10-23T08:23:40;4.57;;;1.80;;
26106;SDS011;13866;50.748;12.630;2022-10-23T08:26:06;2.23;;;2.03;;
26106;SDS011;13866;50.748;12.630;2022-10-23T08:28:32;8.53;;;1.70;;
26106;SDS011;13866;50.748;12.630;2022-10-23T08:30:58;4.13;;;2.00;;
26106;SDS011;13866;50.748;12.630;2022-10-23T08:33:29;1.40;;;1.40;;
26106;SDS011;13866;50.748;12.630;2022-10-23T08:35:55;7.90;;;3.97;;
26106;SDS011;13866;50.748;12.630;2022-10-23T08:38:20;6.07;;;4.50;;
26106;SDS011;13866;50.748;12.630;2022-10-23T08:40:47;3.47;;;3.10;;
26106;SDS011;13866;50.748;12.630;2022-10-23T08:43:15;1.57;;;1.57;;
26106;SDS011;13866;50.748;12.630;2022-10-23T08:45:48;3.07;;;1.70;;
26106;SDS011;13866;50.748;12.630;2022-10-23T08:48:50;6.23;;;1.87;;
26106;SDS011;13866;50.748;12.630;2022-10-23T08:54:17;5.80;;;1.70;;
26106;SDS011;13866;50.748;12.630;2022-10-23T08:56:51;1.33;;;1.33;;
26106;SDS011;13866;50.748;12.630;2022-10-23T08:59:37;1.57;;;1.57;;
26106;SDS011;13866;50.748;12.630;2022-10-23T09:02:12;13.23;;;2.57;;
26106;SDS011;13866;50.748;12.630;2022-10-23T09:04:44;1.57;;;1.47;;
26106;SDS011;13866;50.748;12.630;2022-10-23T09:07:15;1.47;;;1.37;;
26106;SDS011;13866;50.748;12.630;2022-10-23T09:09:58;1.97;;;1.87;;
26106;SDS011;13866;50.748;12.630;2022-10-23T09:12:37;4.60;;;2.97;;
26106;SDS011;13866;50.748;12.630;2022-10-23T09:17:59;2.10;;;1.77;;
26106;SDS011;13866;50.748;12.630;2022-10-23T09:20:32;1.57;;;1.20;;
26106;SDS011;13866;50.748;12.630;2022-10-23T09:23:01;1.77;;;1.67;;
26106;SDS011;13866;50.748;12.630;2022-10-23T09:25:33;7.77;;;2.00;;
26106;SDS011;13866;50.748;12.630;2022-10-23T09:28:02;4.30;;;1.53;;
26106;SDS011;13866;50.748;12.630;2022-10-23T09:30:35;2.30;;;2.20;;
26106;SDS011;13866;50.748;12.630;2022-10-23T09:35:58;9.40;;;2.57;;
26106;SDS011;13866;50.748;12.630;2022-10-23T09:41:21;1.30;;;1.30;;
26106;SDS011;13866;50.748;12.630;2022-10-23T09:43:58;2.77;;;1.70;;
26106;SDS011;13866;50.748;12.630;2022-10-23T09:46:40;2.30;;;2.10;;
26106;SDS011;13866;50.748;12.630;2022-10-23T09:49:23;8.40;;;1.60;;
26106;SDS011;13866;50.748;12.630;2022-10-23T09:55:17;1.43;;;1.33;;
26106;SDS011;13866;50.748;12.630;2022-10-23T09:57:32;1.17;;;1.07;;
26106;SDS011;13866;50.748;12.630;2022-10-23T10:00:15;2.60;;;1.47;;
26106;SDS011;13866;50.748;12.630;2022-10-23T10:02:54;2.33;;;1.93;;
26106;SDS011;13866;50.748;12.630;2022-10-23T10:10:48;3.50;;;1.37;;
26106;SDS011;13866;50.748;12.630;2022-10-23T10:16:02;1.40;;;1.30;;
26106;SDS011;13866;50.748;12.630;2022-10-23T10:21:13;2.33;;;1.43;;
26106;SDS011;13866;50.748;12.630;2022-10-23T10:32:21;1.50;;;1.40;;
26106;SDS011;13866;50.748;12.630;2022-10-23T10:46:38;1.90;;;1.80;;
26106;SDS011;13866;50.748;12.630;2022-10-23T10:49:40;23.10;;;1.60;;
26106;SDS011;13866;50.748;12.630;2022-10-23T10:52:09;14.07;;;2.27;;
26106;SDS011;13866;50.748;12.630;2022-10-23T10:54:45;4.03;;;2.10;;
26106;SDS011;13866;50.748;12.630;2022-10-23T10:57:31;2.07;;;1.90;;
26106;SDS011;13866;50.748;12.630;2022-10-23T11:00:15;2.07;;;1.97;;
26106;SDS011;13866;50.748;12.630;2022-10-23T11:02:47;1.90;;;1.40;;
26106;SDS011;13866;50.748;12.630;2022-10-23T11:08:03;2.27;;;2.17;;
26106;SDS011;13866;50.748;12.630;2022-10-23T11:10:43;12.73;;;1.60;;
26106;SDS011;13866;50.748;12.630;2022-10-23T11:13:26;1.73;;;1.63;;
26106;SDS011;13866;50.748;12.630;2022-10-23T11:16:14;1.30;;;1.30;;
26106;SDS011;13866;50.748;12.630;2022-10-23T11:18:45;6.00;;;0.77;;
26106;SDS011;13866;50.748;12.630;2022-10-23T11:21:24;5.03;;;0.93;;
26106;SDS011;13866;50.748;12.630;2022-10-23T11:29:24;1.50;;;0.93;;
26106;SDS011;13866;50.748;12.630;2022-10-23T11:37:27;7.93;;;0.80;;
26106;SDS011;13866;50.748;12.630;2022-10-23T11:42:29;0.73;;;0.73;;
26106;SDS011;13866;50.748;12.630;2022-10-23T11:45:24;2.43;;;0.53;;
26106;SDS011;13866;50.748;12.630;2022-10-23T11:58:50;3.30;;;0.80;;
26106;SDS011;13866;50.748;12.630;2022-10-23T12:09:45;2.00;;;0.40;;
26106;SDS011;13866;50.748;12.630;2022-10-23T12:12:29;0.70;;;0.60;;
26106;SDS011;13866;50.748;12.630;2022-10-23T12:15:15;2.00;;;0.60;;
26106;SDS011;13866;50.748;12.630;2022-10-23T12:17:43;5.93;;;0.90;;
26106;SDS011;13866;50.748;12.630;2022-10-23T12:22:41;11.03;;;1.47;;
26106;SDS011;13866;50.748;12.630;2022-10-23T12:25:16;5.40;;;0.67;;
26106;SDS011;13866;50.748;12.630;2022-10-23T12:27:58;0.80;;;0.80;;
26106;SDS011;13866;50.748;12.630;2022-10-23T12:30:33;11.27;;;1.60;;
26106;SDS011;13866;50.748;12.630;2022-10-23T12:33:18;0.50;;;0.50;;
26106;SDS011;13866;50.748;12.630;2022-10-23T12:39:02;2.53;;;0.70;;
26106;SDS011;13866;50.748;12.630;2022-10-23T12:41:55;2.30;;;1.27;;
26106;SDS011;13866;50.748;12.630;2022-10-23T12:44:21;7.63;;;1.93;;
26106;SDS011;13866;50.748;12.630;2022-10-23T12:46:49;4.33;;;1.20;;
26106;SDS011;13866;50.748;12.630;2022-10-23T12:49:20;2.63;;;1.13;;
26106;SDS011;13866;50.748;12.630;2022-10-23T12:51:54;4.10;;;1.00;;
26106;SDS011;13866;50.748;12.630;2022-10-23T12:54:22;1.23;;;1.00;;
26106;SDS011;13866;50.748;12.630;2022-10-23T12:56:48;1.13;;;0.70;;
26106;SDS011;13866;50.748;12.630;2022-10-23T12:59:25;0.80;;;0.80;;
26106;SDS011;13866;50.748;12.630;2022-10-23T13:01:54;1.33;;;1.33;;
26106;SDS011;13866;50.748;12.630;2022-10-23T13:04:29;1.13;;;0.67;;
26106;SDS011;13866;50.748;12.630;2022-10-23T13:06:58;11.43;;;0.70;;
26106;SDS011;13866;50.748;12.630;2022-10-23T13:09:33;1.23;;;0.60;;
26106;SDS011;13866;50.748;12.630;2022-10-23T13:12:04;0.83;;;0.83;;
26106;SDS011;13866;50.748;12.630;2022-10-23T13:15:16;1.63;;;1.00;;
26106;SDS011;13866;50.748;12.630;2022-10-23T13:17:37;0.50;;;0.50;;
26106;SDS011;13866;50.748;12.630;2022-10-23T13:20:10;14.50;;;3.17;;
26106;SDS011;13866;50.748;12.630;2022-10-23T13:22:52;7.13;;;0.93;;
26106;SDS011;13866;50.748;12.630;2022-10-23T13:25:26;1.87;;;1.77;;
26106;SDS011;13866;50.748;12.630;2022-10-23T13:30:58;1.73;;;0.70;;
26106;SDS011;13866;50.748;12.630;2022-10-23T13:33:45;0.70;;;0.70;;
26106;SDS011;13866;50.748;12.630;2022-10-23T13:38:41;2.00;;;0.93;;
26106;SDS011;13866;50.748;12.630;2022-10-23T13:41:11;0.90;;;0.90;;
26106;SDS011;13866;50.748;12.630;2022-10-23T13:43:42;0.90;;;0.90;;
26106;SDS011;13866;50.748;12.630;2022-10-23T13:46:12;6.17;;;1.20;;
26106;SDS011;13866;50.748;12.630;2022-10-23T13:48:41;5.60;;;1.90;;
26106;SDS011;13866;50.748;12.630;2022-10-23T13:51:11;2.33;;;1.13;;
26106;SDS011;13866;50.748;12.630;2022-10-23T13:53:37;0.67;;;0.67;;
26106;SDS011;13866;50.748;12.630;2022-10-23T13:56:02;1.10;;;1.00;;
26106;SDS011;13866;50.748;12.630;2022-10-23T13:58:28;0.70;;;0.70;;
26106;SDS011;13866;50.748;12.630;2022-10-23T14:00:53;1.53;;;0.70;;
26106;SDS011;13866;50.748;12.630;2022-10-23T14:03:19;1.47;;;1.37;;
26106;SDS011;13866;50.748;12.630;2022-10-23T14:05:48;7.43;;;1.00;;
26106;SDS011;13866;50.748;12.630;2022-10-23T14:08:14;1.77;;;1.00;;
26106;SDS011;13866;50.748;12.630;2022-10-23T14:10:39;1.33;;;0.73;;
26106;SDS011;13866;50.748;12.630;2022-10-23T14:13:05;1.03;;;0.60;;
26106;SDS011;13866;50.748;12.630;2022-10-23T14:15:31;2.30;;;0.90;;
26106;SDS011;13866;50.748;12.630;2022-10-23T14:17:56;1.13;;;1.03;;
26106;SDS011;13866;50.748;12.630;2022-10-23T14:20:22;4.77;;;1.00;;
26106;SDS011;13866;50.748;12.630;2022-10-23T14:22:47;1.30;;;0.80;;
26106;SDS011;13866;50.748;12.630;2022-10-23T14:25:13;6.30;;;1.03;;
26106;SDS011;13866;50.748;12.630;2022-10-23T14:27:38;4.50;;;1.40;;
26106;SDS011;13866;50.748;12.630;2022-10-23T14:30:04;2.10;;;1.50;;
26106;SDS011;13866;50.748;12.630;2022-10-23T14:32:30;5.13;;;0.80;;
26106;SDS011;13866;50.748;12.630;2022-10-23T14:34:55;0.77;;;0.77;;
26106;SDS011;13866;50.748;12.630;2022-10-23T14:37:21;5.13;;;1.10;;
26106;SDS011;13866;50.748;12.630;2022-10-23T14:39:47;3.70;;;0.80;;
26106;SDS011;13866;50.748;12.630;2022-10-23T14:42:12;1.43;;;1.30;;
26106;SDS011;13866;50.748;12.630;2022-10-23T14:44:38;1.87;;;0.70;;
26106;SDS011;13866;50.748;12.630;2022-10-23T14:47:04;6.93;;;1.17;;
26106;SDS011;13866;50.748;12.630;2022-10-23T14:49:30;1.20;;;1.10;;
26106;SDS011;13866;50.748;12.630;2022-10-23T14:51:56;1.00;;;1.00;;
26106;SDS011;13866;50.748;12.630;2022-10-23T14:54:22;6.60;;;1.37;;
26106;SDS011;13866;50.748;12.630;2022-10-23T14:56:47;7.00;;;1.10;;
26106;SDS011;13866;50.748;12.630;2022-10-23T14:59:13;0.83;;;0.83;;
26106;SDS011;13866;50.748;12.630;2022-10-23T15:01:40;4.97;;;0.87;;
26106;SDS011;13866;50.748;12.630;2022-10-23T15:04:06;4.87;;;0.97;;
26106;SDS011;13866;50.748;12.630;2022-10-23T15:06:32;7.53;;;0.83;;
26106;SDS011;13866;50.748;12.630;2022-10-23T15:08:58;0.97;;;0.97;;
26106;SDS011;13866;50.748;12.630;2022-10-23T15:11:24;3.57;;;0.90;;
26106;SDS011;13866;50.748;12.630;2022-10-23T15:13:51;4.27;;;1.20;;
26106;SDS011;13866;50.748;12.630;2022-10-23T15:16:18;3.60;;;1.17;;
26106;SDS011;13866;50.748;12.630;2022-10-23T15:18:45;12.83;;;1.40;;
26106;SDS011;13866;50.748;12.630;2022-10-23T15:21:10;3.50;;;1.00;;
26106;SDS011;13866;50.748;12.630;2022-10-23T15:23:38;3.20;;;1.20;;
26106;SDS011;13866;50.748;12.630;2022-10-23T15:26:06;15.67;;;2.30;;
26106;SDS011;13866;50.748;12.630;2022-10-23T15:28:33;6.73;;;1.10;;
26106;SDS011;13866;50.748;12.630;2022-10-23T15:30:59;12.63;;;2.47;;
26106;SDS011;13866;50.748;12.630;2022-10-23T15:33:25;15.20;;;1.50;;
26106;SDS011;13866;50.748;12.630;2022-10-23T15:35:51;7.07;;;1.57;;
26106;SDS011;13866;50.748;12.630;2022-10-23T15:38:18;5.50;;;1.87;;
26106;SDS011;13866;50.748;12.630;2022-10-23T15:40:44;5.20;;;1.60;;
26106;SDS011;13866;50.748;12.630;2022-10-23T15:43:10;7.73;;;1.30;;
26106;SDS011;13866;50.748;12.630;2022-10-23T15:45:37;4.30;;;1.50;;
26106;SDS011;13866;50.748;12.630;2022-10-23T15:48:03;1.90;;;1.40;;
26106;SDS011;13866;50.748;12.630;2022-10-23T15:50:30;2.47;;;0.90;;
26106;SDS011;13866;50.748;12.630;2022-10-23T15:52:56;7.93;;;2.33;;
26106;SDS011;13866;50.748;12.630;2022-10-23T15:55:21;4.00;;;1.30;;
26106;SDS011;13866;50.748;12.630;2022-10-23T15:57:47;6.47;;;1.50;;
26106;SDS011;13866;50.748;12.630;2022-10-23T16:00:13;3.03;;;1.20;;
26106;SDS011;13866;50.748;12.630;2022-10-23T16:02:39;9.90;;;1.10;;
26106;SDS011;13866;50.748;12.630;2022-10-23T16:05:05;4.23;;;1.50;;
26106;SDS011;13866;50.748;12.630;2022-10-23T16:07:31;1.10;;;1.00;;
26106;SDS011;13866;50.748;12.630;2022-10-23T16:09:57;5.30;;;1.10;;
26106;SDS011;13866;50.748;12.630;2022-10-23T16:12:22;1.23;;;1.23;;
26106;SDS011;13866;50.748;12.630;2022-10-23T16:14:48;14.57;;;1.77;;
26106;SDS011;13866;50.748;12.630;2022-10-23T16:17:15;5.80;;;2.10;;
26106;SDS011;13866;50.748;12.630;2022-10-23T16:19:42;3.27;;;2.90;;
26106;SDS011;13866;50.748;12.630;2022-10-23T16:22:07;2.53;;;2.43;;
26106;SDS011;13866;50.748;12.630;2022-10-23T16:24:33;2.80;;;2.70;;
26106;SDS011;13866;50.748;12.630;2022-10-23T16:26:58;2.47;;;2.40;;
26106;SDS011;13866;50.748;12.630;2022-10-23T16:29:24;1.23;;;1.23;;
26106;SDS011;13866;50.748;12.630;2022-10-23T16:31:51;6.27;;;1.70;;
26106;SDS011;13866;50.748;12.630;2022-10-23T16:34:18;2.60;;;2.50;;
26106;SDS011;13866;50.748;12.630;2022-10-23T16:36:44;3.93;;;1.50;;
26106;SDS011;13866;50.748;12.630;2022-10-23T16:39:10;3.03;;;1.77;;
26106;SDS011;13866;50.748;12.630;2022-10-23T16:41:36;1.20;;;1.20;;